sensor_id;sensor_type;location;lat;lon;timestamp;pressure;altitude;pressure_sealevel;temperature;humidity
250;BME280;109;19.806;-70.704;2024-02-04T00:02:01;101038.78;;;23.29;46.54
250;BME280;109;19.806;-70.704;2024-02-04T00:04:36;101046.75;;;23.16;46.73
250;BME280;109;19.806;-70.704;2024-02-04T00:07:03;101046.97;;;23.13;46.86
250;BME280;109;19.806;-70.704;2024-02-04T00:09:36;101053.59;;;23.22;46.85
250;BME280;109;19.806;-70.704;2024-02-04T00:12:03;101051.50;;;23.13;46.89
250;BME280;109;19.806;-70.704;2024-02-04T00:14:36;101050.31;;;23.31;46.72
250;BME280;109;19.806;-70.704;2024-02-04T00:17:03;101049.53;;;23.15;47.27
250;BME280;109;19.806;-70.704;2024-02-04T00:19:36;101056.56;;;23.17;46.64
250;BME280;109;19.806;-70.704;2024-02-04T00:22:03;101056.28;;;23.22;46.70
250;BME280;109;19.806;-70.704;2024-02-04T00:24:35;101060.44;;;23.13;47.01
250;BME280;109;19.806;-70.704;2024-02-04T00:27:05;101058.59;;;23.14;47.16
250;BME280;109;19.806;-70.704;2024-02-04T00:29:37;101069.06;;;23.18;46.76
250;BME280;109;19.806;-70.704;2024-02-04T00:32:04;101063.28;;;23.24;47.03
250;BME280;109;19.806;-70.704;2024-02-04T00:34:37;101064.34;;;23.22;47.13
250;BME280;109;19.806;-70.704;2024-02-04T00:37:10;101058.00;;;23.37;46.77
250;BME280;109;19.806;-70.704;2024-02-04T00:39:43;101069.94;;;23.33;46.79
250;BME280;109;19.806;-70.704;2024-02-04T00:42:10;101060.53;;;23.12;46.94
250;BME280;109;19.806;-70.704;2024-02-04T00:44:49;101071.47;;;23.09;46.80
250;BME280;109;19.806;-70.704;2024-02-04T00:47:16;101074.44;;;23.32;46.98
250;BME280;109;19.806;-70.704;2024-02-04T00:49:49;101068.78;;;23.23;46.81
250;BME280;109;19.806;-70.704;2024-02-04T00:52:16;101073.19;;;23.24;46.70
250;BME280;109;19.806;-70.704;2024-02-04T00:54:48;101073.28;;;23.22;46.84
250;BME280;109;19.806;-70.704;2024-02-04T00:57:15;101068.09;;;23.19;46.84
250;BME280;109;19.806;-70.704;2024-02-04T00:59:47;101063.59;;;23.05;47.07
250;BME280;109;19.806;-70.704;2024-02-04T01:02:14;101058.84;;;23.52;46.49
250;BME280;109;19.806;-70.704;2024-02-04T01:04:46;101063.13;;;23.13;47.01
250;BME280;109;19.806;-70.704;2024-02-04T01:07:14;101063.22;;;23.12;46.95
250;BME280;109;19.806;-70.704;2024-02-04T01:09:47;101072.81;;;23.16;46.68
250;BME280;109;19.806;-70.704;2024-02-04T01:12:14;101066.28;;;23.20;46.49
250;BME280;109;19.806;-70.704;2024-02-04T01:14:46;101065.69;;;23.15;46.86
250;BME280;109;19.806;-70.704;2024-02-04T01:17:13;101070.03;;;23.03;47.07
250;BME280;109;19.806;-70.704;2024-02-04T01:19:45;101066.97;;;23.09;46.88
250;BME280;109;19.806;-70.704;2024-02-04T01:22:15;101067.06;;;23.08;47.11
250;BME280;109;19.806;-70.704;2024-02-04T01:24:47;101069.16;;;23.02;47.25
250;BME280;109;19.806;-70.704;2024-02-04T01:27:15;101061.16;;;23.15;46.90
250;BME280;109;19.806;-70.704;2024-02-04T01:29:48;101062.09;;;23.01;47.00
250;BME280;109;19.806;-70.704;2024-02-04T01:32:15;101058.63;;;22.99;46.98
250;BME280;109;19.806;-70.704;2024-02-04T01:34:55;101058.91;;;22.95;47.34
250;BME280;109;19.806;-70.704;2024-02-04T01:37:36;101049.38;;;22.89;47.38
250;BME280;109;19.806;-70.704;2024-02-04T01:40:03;101048.50;;;22.89;47.41
250;BME280;109;19.806;-70.704;2024-02-04T01:42:37;101042.31;;;22.88;47.18
250;BME280;109;19.806;-70.704;2024-02-04T01:45:04;101040.16;;;22.79;47.18
250;BME280;109;19.806;-70.704;2024-02-04T01:47:37;101039.03;;;22.83;47.08
250;BME280;109;19.806;-70.704;2024-02-04T01:50:05;101031.03;;;22.82;47.21
250;BME280;109;19.806;-70.704;2024-02-04T01:52:39;101025.53;;;22.69;47.57
250;BME280;109;19.806;-70.704;2024-02-04T01:55:06;101023.81;;;22.54;47.72
250;BME280;109;19.806;-70.704;2024-02-04T01:57:41;101030.66;;;22.59;47.42
250;BME280;109;19.806;-70.704;2024-02-04T02:00:08;101016.81;;;22.80;47.12
250;BME280;109;19.806;-70.704;2024-02-04T02:02:43;101033.84;;;22.80;47.35
250;BME280;109;19.806;-70.704;2024-02-04T02:05:12;101028.34;;;22.82;47.00
250;BME280;109;19.806;-70.704;2024-02-04T02:07:44;101039.31;;;22.79;47.20
250;BME280;109;19.806;-70.704;2024-02-04T02:10:13;101038.53;;;22.77;47.44
250;BME280;109;19.806;-70.704;2024-02-04T02:12:59;101054.59;;;22.78;46.98
250;BME280;109;19.806;-70.704;2024-02-04T02:15:39;101055.34;;;23.09;46.87
250;BME280;109;19.806;-70.704;2024-02-04T02:18:37;101063.25;;;22.97;47.05
250;BME280;109;19.806;-70.704;2024-02-04T02:26:58;101064.38;;;22.93;46.95
250;BME280;109;19.806;-70.704;2024-02-04T02:29:25;101059.50;;;22.86;47.18
250;BME280;109;19.806;-70.704;2024-02-04T02:31:59;101056.22;;;22.81;47.46
250;BME280;109;19.806;-70.704;2024-02-04T02:34:35;101054.59;;;22.78;47.16
250;BME280;109;19.806;-70.704;2024-02-04T02:37:20;101050.56;;;22.85;47.29
250;BME280;109;19.806;-70.704;2024-02-04T02:40:00;101038.03;;;22.56;47.51
250;BME280;109;19.806;-70.704;2024-02-04T02:42:38;101029.25;;;22.38;48.18
250;BME280;109;19.806;-70.704;2024-02-04T02:45:18;101029.38;;;22.37;48.08
250;BME280;109;19.806;-70.704;2024-02-04T02:47:54;101023.41;;;22.31;48.16
250;BME280;109;19.806;-70.704;2024-02-04T02:50:21;101025.41;;;22.28;48.60
250;BME280;109;19.806;-70.704;2024-02-04T02:52:55;101017.09;;;22.61;47.86
250;BME280;109;19.806;-70.704;2024-02-04T02:55:21;101017.75;;;22.64;47.77
250;BME280;109;19.806;-70.704;2024-02-04T02:57:54;101007.97;;;22.49;47.89
250;BME280;109;19.806;-70.704;2024-02-04T03:00:21;101016.41;;;22.57;47.90
250;BME280;109;19.806;-70.704;2024-02-04T03:02:55;101010.47;;;22.81;47.26
250;BME280;109;19.806;-70.704;2024-02-04T03:05:22;101011.63;;;22.77;47.47
250;BME280;109;19.806;-70.704;2024-02-04T03:07:54;101010.75;;;22.76;47.35
250;BME280;109;19.806;-70.704;2024-02-04T03:10:21;101001.63;;;22.79;47.28
250;BME280;109;19.806;-70.704;2024-02-04T03:12:53;101005.09;;;22.81;47.43
250;BME280;109;19.806;-70.704;2024-02-04T03:15:20;101008.63;;;23.10;46.84
250;BME280;109;19.806;-70.704;2024-02-04T03:17:52;101003.53;;;22.91;47.47
250;BME280;109;19.806;-70.704;2024-02-04T03:20:19;101001.53;;;22.66;47.47
250;BME280;109;19.806;-70.704;2024-02-04T03:22:51;101002.03;;;22.58;47.67
250;BME280;109;19.806;-70.704;2024-02-04T03:25:18;100997.59;;;22.57;47.79
250;BME280;109;19.806;-70.704;2024-02-04T03:27:52;101000.00;;;22.33;48.46
250;BME280;109;19.806;-70.704;2024-02-04T03:30:21;101003.22;;;22.24;48.57
250;BME280;109;19.806;-70.704;2024-02-04T03:32:54;100992.47;;;22.24;48.52
250;BME280;109;19.806;-70.704;2024-02-04T03:35:21;100987.47;;;22.18;48.49
250;BME280;109;19.806;-70.704;2024-02-04T03:38:01;100984.72;;;22.34;48.37
250;BME280;109;19.806;-70.704;2024-02-04T03:40:34;100985.97;;;22.43;48.16
250;BME280;109;19.806;-70.704;2024-02-04T03:43:01;100984.06;;;22.45;48.50
250;BME280;109;19.806;-70.704;2024-02-04T03:45:37;100977.03;;;22.42;48.48
250;BME280;109;19.806;-70.704;2024-02-04T03:48:04;100972.16;;;22.34;48.30
250;BME280;109;19.806;-70.704;2024-02-04T03:50:37;100974.44;;;22.26;48.61
250;BME280;109;19.806;-70.704;2024-02-04T03:53:04;100966.09;;;22.45;48.53
250;BME280;109;19.806;-70.704;2024-02-04T03:55:36;100972.34;;;22.31;48.22
250;BME280;109;19.806;-70.704;2024-02-04T03:58:03;100964.63;;;22.25;48.29
250;BME280;109;19.806;-70.704;2024-02-04T04:00:36;100965.41;;;22.27;48.57
250;BME280;109;19.806;-70.704;2024-02-04T04:03:03;100970.78;;;22.27;48.54
250;BME280;109;19.806;-70.704;2024-02-04T04:05:36;100977.22;;;22.39;48.35
250;BME280;109;19.806;-70.704;2024-02-04T04:08:03;100978.69;;;22.45;48.32
250;BME280;109;19.806;-70.704;2024-02-04T04:10:36;100974.19;;;22.15;48.46
250;BME280;109;19.806;-70.704;2024-02-04T04:13:03;100972.91;;;22.51;48.19
250;BME280;109;19.806;-70.704;2024-02-04T04:15:35;100965.31;;;22.43;48.27
250;BME280;109;19.806;-70.704;2024-02-04T04:18:02;100961.00;;;22.41;48.24
250;BME280;109;19.806;-70.704;2024-02-04T04:20:35;100964.28;;;22.46;48.23
250;BME280;109;19.806;-70.704;2024-02-04T04:23:02;100965.69;;;22.51;48.04
250;BME280;109;19.806;-70.704;2024-02-04T04:25:34;100966.09;;;22.45;48.06
250;BME280;109;19.806;-70.704;2024-02-04T04:28:01;100962.72;;;22.42;48.20
250;BME280;109;19.806;-70.704;2024-02-04T04:30:33;100962.44;;;22.46;48.14
250;BME280;109;19.806;-70.704;2024-02-04T04:33:00;100964.09;;;22.49;48.18
250;BME280;109;19.806;-70.704;2024-02-04T04:35:32;100955.03;;;22.50;48.03
250;BME280;109;19.806;-70.704;2024-02-04T04:38:12;100953.72;;;22.43;48.31
250;BME280;109;19.806;-70.704;2024-02-04T04:40:39;100948.50;;;22.40;47.94
250;BME280;109;19.806;-70.704;2024-02-04T04:43:14;100948.41;;;22.27;48.52
250;BME280;109;19.806;-70.704;2024-02-04T04:45:41;100952.38;;;22.35;48.33
250;BME280;109;19.806;-70.704;2024-02-04T04:48:13;100939.41;;;22.42;48.09
250;BME280;109;19.806;-70.704;2024-02-04T04:50:40;100945.91;;;22.81;47.35
250;BME280;109;19.806;-70.704;2024-02-04T04:53:12;100938.19;;;22.89;47.49
250;BME280;109;19.806;-70.704;2024-02-04T04:55:39;100938.19;;;22.89;47.21
250;BME280;109;19.806;-70.704;2024-02-04T04:58:11;100944.66;;;22.72;47.48
250;BME280;109;19.806;-70.704;2024-02-04T05:00:38;100933.78;;;23.15;46.85
250;BME280;109;19.806;-70.704;2024-02-04T05:03:10;100935.81;;;22.70;47.41
250;BME280;109;19.806;-70.704;2024-02-04T05:05:37;100933.81;;;22.88;47.18
250;BME280;109;19.806;-70.704;2024-02-04T05:08:12;100926.88;;;22.69;47.31
250;BME280;109;19.806;-70.704;2024-02-04T05:10:39;100929.63;;;22.96;47.09
250;BME280;109;19.806;-70.704;2024-02-04T05:13:11;100937.97;;;23.06;47.13
250;BME280;109;19.806;-70.704;2024-02-04T05:15:38;100939.09;;;22.75;47.42
250;BME280;109;19.806;-70.704;2024-02-04T05:18:10;100932.97;;;22.45;48.16
250;BME280;109;19.806;-70.704;2024-02-04T05:20:37;100930.06;;;22.19;48.67
250;BME280;109;19.806;-70.704;2024-02-04T05:23:09;100934.28;;;22.38;48.29
250;BME280;109;19.806;-70.704;2024-02-04T05:25:36;100930.09;;;22.33;48.58
250;BME280;109;19.806;-70.704;2024-02-04T05:28:08;100927.97;;;22.24;48.65
250;BME280;109;19.806;-70.704;2024-02-04T05:30:35;100932.00;;;22.46;48.10
250;BME280;109;19.806;-70.704;2024-02-04T05:33:07;100924.50;;;22.22;48.22
250;BME280;109;19.806;-70.704;2024-02-04T05:35:34;100920.47;;;22.29;48.45
250;BME280;109;19.806;-70.704;2024-02-04T05:38:23;100917.38;;;22.21;48.56
250;BME280;109;19.806;-70.704;2024-02-04T05:40:56;100913.56;;;22.40;48.46
250;BME280;109;19.806;-70.704;2024-02-04T05:43:23;100905.59;;;22.24;48.23
250;BME280;109;19.806;-70.704;2024-02-04T05:45:56;100912.97;;;22.20;48.56
250;BME280;109;19.806;-70.704;2024-02-04T05:48:23;100909.13;;;22.10;48.72
250;BME280;109;19.806;-70.704;2024-02-04T05:50:55;100897.31;;;22.13;48.72
250;BME280;109;19.806;-70.704;2024-02-04T05:53:22;100899.50;;;21.92;49.14
250;BME280;109;19.806;-70.704;2024-02-04T05:55:54;100893.75;;;21.98;48.92
250;BME280;109;19.806;-70.704;2024-02-04T05:58:21;100900.53;;;22.33;48.21
250;BME280;109;19.806;-70.704;2024-02-04T06:00:53;100886.50;;;22.43;48.20
250;BME280;109;19.806;-70.704;2024-02-04T06:03:20;100882.31;;;22.51;47.83
250;BME280;109;19.806;-70.704;2024-02-04T06:05:55;100884.34;;;22.62;47.61
250;BME280;109;19.806;-70.704;2024-02-04T06:08:21;100877.03;;;22.78;47.17
250;BME280;109;19.806;-70.704;2024-02-04T06:10:54;100876.31;;;22.33;48.41
250;BME280;109;19.806;-70.704;2024-02-04T06:13:21;100881.69;;;22.19;48.46
250;BME280;109;19.806;-70.704;2024-02-04T06:15:53;100872.84;;;22.17;48.87
250;BME280;109;19.806;-70.704;2024-02-04T06:18:20;100869.78;;;22.23;48.55
250;BME280;109;19.806;-70.704;2024-02-04T06:20:52;100874.47;;;22.20;48.73
250;BME280;109;19.806;-70.704;2024-02-04T06:23:19;100871.78;;;22.20;48.50
250;BME280;109;19.806;-70.704;2024-02-04T06:25:51;100861.84;;;22.36;48.39
250;BME280;109;19.806;-70.704;2024-02-04T06:28:18;100853.00;;;22.34;48.37
250;BME280;109;19.806;-70.704;2024-02-04T06:30:50;100852.69;;;22.39;48.26
250;BME280;109;19.806;-70.704;2024-02-04T06:33:17;100844.25;;;22.30;48.52
250;BME280;109;19.806;-70.704;2024-02-04T06:35:51;100859.69;;;22.13;48.86
250;BME280;109;19.806;-70.704;2024-02-04T06:38:47;100845.28;;;22.14;49.11
250;BME280;109;19.806;-70.704;2024-02-04T06:41:20;100840.00;;;22.12;48.89
250;BME280;109;19.806;-70.704;2024-02-04T06:44:02;100843.38;;;22.16;48.88
250;BME280;109;19.806;-70.704;2024-02-04T06:46:38;100835.78;;;22.22;48.80
250;BME280;109;19.806;-70.704;2024-02-04T06:49:05;100838.00;;;22.16;49.13
250;BME280;109;19.806;-70.704;2024-02-04T06:51:37;100829.06;;;22.01;49.14
250;BME280;109;19.806;-70.704;2024-02-04T06:54:04;100831.41;;;21.93;49.29
250;BME280;109;19.806;-70.704;2024-02-04T06:56:36;100826.78;;;22.09;48.60
250;BME280;109;19.806;-70.704;2024-02-04T06:59:03;100818.50;;;21.98;49.30
250;BME280;109;19.806;-70.704;2024-02-04T07:01:35;100826.88;;;22.08;49.26
250;BME280;109;19.806;-70.704;2024-02-04T07:04:02;100826.97;;;22.06;49.03
250;BME280;109;19.806;-70.704;2024-02-04T07:06:34;100833.50;;;22.02;49.35
250;BME280;109;19.806;-70.704;2024-02-04T07:09:01;100815.25;;;22.21;48.96
250;BME280;109;19.806;-70.704;2024-02-04T07:11:33;100815.63;;;22.15;49.18
250;BME280;109;19.806;-70.704;2024-02-04T07:14:00;100821.41;;;22.23;48.46
250;BME280;109;19.806;-70.704;2024-02-04T07:16:32;100809.22;;;23.13;47.05
250;BME280;109;19.806;-70.704;2024-02-04T07:18:59;100821.28;;;22.80;47.60
250;BME280;109;19.806;-70.704;2024-02-04T07:21:31;100812.06;;;22.70;47.95
250;BME280;109;19.806;-70.704;2024-02-04T07:23:58;100803.53;;;22.63;48.25
250;BME280;109;19.806;-70.704;2024-02-04T07:26:30;100802.66;;;22.77;48.13
250;BME280;109;19.806;-70.704;2024-02-04T07:28:57;100799.41;;;22.72;47.95
250;BME280;109;19.806;-70.704;2024-02-04T07:31:29;100798.13;;;22.78;47.84
250;BME280;109;19.806;-70.704;2024-02-04T07:33:56;100802.81;;;22.88;47.49
250;BME280;109;19.806;-70.704;2024-02-04T07:36:35;100798.63;;;22.97;47.31
250;BME280;109;19.806;-70.704;2024-02-04T07:39:15;100799.19;;;22.75;48.02
250;BME280;109;19.806;-70.704;2024-02-04T07:41:42;100799.44;;;22.58;48.01
250;BME280;109;19.806;-70.704;2024-02-04T07:44:14;100803.34;;;22.11;49.08
250;BME280;109;19.806;-70.704;2024-02-04T07:46:47;100802.09;;;22.17;49.11
250;BME280;109;19.806;-70.704;2024-02-04T07:49:20;100798.44;;;22.18;49.01
250;BME280;109;19.806;-70.704;2024-02-04T07:51:47;100798.75;;;22.27;48.78
250;BME280;109;19.806;-70.704;2024-02-04T07:54:20;100805.66;;;22.31;48.97
250;BME280;109;19.806;-70.704;2024-02-04T07:56:47;100796.34;;;22.23;49.18
250;BME280;109;19.806;-70.704;2024-02-04T07:59:22;100788.56;;;22.18;49.19
250;BME280;109;19.806;-70.704;2024-02-04T08:01:49;100792.41;;;22.28;48.94
250;BME280;109;19.806;-70.704;2024-02-04T08:04:22;100795.28;;;22.25;49.00
250;BME280;109;19.806;-70.704;2024-02-04T08:06:48;100801.91;;;22.20;49.18
250;BME280;109;19.806;-70.704;2024-02-04T08:09:21;100804.09;;;22.13;49.29
250;BME280;109;19.806;-70.704;2024-02-04T08:11:48;100794.03;;;22.17;49.36
250;BME280;109;19.806;-70.704;2024-02-04T08:14:21;100793.25;;;22.15;49.33
250;BME280;109;19.806;-70.704;2024-02-04T08:16:47;100793.06;;;22.18;49.38
250;BME280;109;19.806;-70.704;2024-02-04T08:19:21;100801.66;;;22.10;49.55
250;BME280;109;19.806;-70.704;2024-02-04T08:21:47;100781.38;;;22.05;49.25
250;BME280;109;19.806;-70.704;2024-02-04T08:24:20;100789.81;;;22.13;49.62
250;BME280;109;19.806;-70.704;2024-02-04T08:26:47;100786.66;;;22.20;49.65
250;BME280;109;19.806;-70.704;2024-02-04T08:29:20;100782.06;;;22.08;49.31
250;BME280;109;19.806;-70.704;2024-02-04T08:31:47;100791.00;;;22.09;49.89
250;BME280;109;19.806;-70.704;2024-02-04T08:34:19;100781.38;;;22.05;49.69
250;BME280;109;19.806;-70.704;2024-02-04T08:36:50;100784.66;;;21.95;49.91
250;BME280;109;19.806;-70.704;2024-02-04T08:39:23;100781.56;;;22.01;49.77
250;BME280;109;19.806;-70.704;2024-02-04T08:42:03;100776.84;;;22.19;49.32
250;BME280;109;19.806;-70.704;2024-02-04T08:44:29;100778.59;;;22.20;49.29
250;BME280;109;19.806;-70.704;2024-02-04T08:47:02;100780.34;;;22.07;49.91
250;BME280;109;19.806;-70.704;2024-02-04T08:49:30;100786.47;;;22.09;49.39
250;BME280;109;19.806;-70.704;2024-02-04T08:52:03;100777.66;;;22.07;49.88
250;BME280;109;19.806;-70.704;2024-02-04T08:54:29;100782.25;;;22.05;49.34
250;BME280;109;19.806;-70.704;2024-02-04T08:57:04;100780.63;;;22.03;49.88
250;BME280;109;19.806;-70.704;2024-02-04T08:59:30;100779.28;;;22.10;49.58
250;BME280;109;19.806;-70.704;2024-02-04T09:02:04;100779.38;;;22.08;49.72
250;BME280;109;19.806;-70.704;2024-02-04T09:04:31;100778.03;;;22.01;49.70
250;BME280;109;19.806;-70.704;2024-02-04T09:07:04;100786.97;;;21.87;49.96
250;BME280;109;19.806;-70.704;2024-02-04T09:09:30;100789.75;;;21.86;49.91
250;BME280;109;19.806;-70.704;2024-02-04T09:12:04;100777.38;;;21.97;49.88
250;BME280;109;19.806;-70.704;2024-02-04T09:14:30;100784.34;;;22.14;49.67
250;BME280;109;19.806;-70.704;2024-02-04T09:17:04;100781.56;;;22.16;49.70
250;BME280;109;19.806;-70.704;2024-02-04T09:19:32;100793.06;;;22.18;49.59
250;BME280;109;19.806;-70.704;2024-02-04T09:22:06;100784.06;;;22.19;49.51
250;BME280;109;19.806;-70.704;2024-02-04T09:24:32;100785.28;;;22.13;49.79
250;BME280;109;19.806;-70.704;2024-02-04T09:27:06;100791.53;;;22.14;49.62
250;BME280;109;19.806;-70.704;2024-02-04T09:29:35;100786.47;;;22.09;49.41
250;BME280;109;19.806;-70.704;2024-02-04T09:32:07;100791.94;;;22.08;49.44
250;BME280;109;19.806;-70.704;2024-02-04T09:34:34;100783.78;;;22.09;49.55
250;BME280;109;19.806;-70.704;2024-02-04T09:37:13;100791.38;;;21.88;49.36
250;BME280;109;19.806;-70.704;2024-02-04T09:39:46;100780.25;;;21.94;49.81
250;BME280;109;19.806;-70.704;2024-02-04T09:42:19;100781.31;;;21.92;49.55
250;BME280;109;19.806;-70.704;2024-02-04T09:44:54;100791.88;;;21.81;49.87
250;BME280;109;19.806;-70.704;2024-02-04T09:47:20;100796.66;;;21.90;49.60
250;BME280;109;19.806;-70.704;2024-02-04T09:49:54;100799.53;;;21.87;49.72
250;BME280;109;19.806;-70.704;2024-02-04T09:52:28;100799.44;;;22.03;49.54
250;BME280;109;19.806;-70.704;2024-02-04T09:55:03;100808.72;;;22.11;49.47
250;BME280;109;19.806;-70.704;2024-02-04T09:57:32;100811.03;;;22.03;49.18
250;BME280;109;19.806;-70.704;2024-02-04T10:00:06;100798.19;;;22.08;49.30
250;BME280;109;19.806;-70.704;2024-02-04T10:02:41;100810.00;;;22.06;49.05
250;BME280;109;19.806;-70.704;2024-02-04T10:05:18;100815.28;;;21.93;49.78
250;BME280;109;19.806;-70.704;2024-02-04T10:07:44;100809.72;;;21.96;49.49
250;BME280;109;19.806;-70.704;2024-02-04T10:10:17;100813.13;;;21.98;49.81
250;BME280;109;19.806;-70.704;2024-02-04T10:12:43;100811.22;;;22.00;49.86
250;BME280;109;19.806;-70.704;2024-02-04T10:15:16;100813.13;;;22.12;49.19
250;BME280;109;19.806;-70.704;2024-02-04T10:17:46;100815.38;;;22.06;49.60
250;BME280;109;19.806;-70.704;2024-02-04T10:20:18;100813.13;;;21.98;49.42
250;BME280;109;19.806;-70.704;2024-02-04T10:22:45;100817.78;;;21.96;49.72
250;BME280;109;19.806;-70.704;2024-02-04T10:25:20;100814.09;;;22.11;49.44
250;BME280;109;19.806;-70.704;2024-02-04T10:27:47;100825.69;;;22.12;49.30
250;BME280;109;19.806;-70.704;2024-02-04T10:30:21;100827.44;;;22.27;49.18
250;BME280;109;19.806;-70.704;2024-02-04T10:32:51;100831.94;;;22.12;49.39
250;BME280;109;19.806;-70.704;2024-02-04T10:35:24;100832.16;;;22.09;49.39
250;BME280;109;19.806;-70.704;2024-02-04T10:37:50;100828.53;;;21.96;49.31
250;BME280;109;19.806;-70.704;2024-02-04T10:40:23;100837.31;;;22.12;49.20
250;BME280;109;19.806;-70.704;2024-02-04T10:43:00;100840.78;;;22.14;49.30
250;BME280;109;19.806;-70.704;2024-02-04T10:45:30;100839.06;;;21.99;49.18
250;BME280;109;19.806;-70.704;2024-02-04T10:48:01;100842.03;;;22.09;49.30
250;BME280;109;19.806;-70.704;2024-02-04T10:50:28;100841.63;;;22.43;48.48
250;BME280;109;19.806;-70.704;2024-02-04T10:52:58;100847.53;;;22.35;48.78
250;BME280;109;19.806;-70.704;2024-02-04T10:55:30;100847.13;;;22.83;47.86
250;BME280;109;19.806;-70.704;2024-02-04T10:57:57;100853.38;;;22.28;48.58
250;BME280;109;19.806;-70.704;2024-02-04T11:00:25;100851.53;;;22.14;48.79
250;BME280;109;19.806;-70.704;2024-02-04T11:02:52;100857.41;;;22.07;48.90
250;BME280;109;19.806;-70.704;2024-02-04T11:05:22;100855.09;;;22.15;48.84
250;BME280;109;19.806;-70.704;2024-02-04T11:07:50;100857.41;;;22.21;48.98
250;BME280;109;19.806;-70.704;2024-02-04T11:10:17;100856.13;;;21.98;48.85
250;BME280;109;19.806;-70.704;2024-02-04T11:12:46;100852.22;;;22.04;49.43
250;BME280;109;19.806;-70.704;2024-02-04T11:15:15;100858.13;;;22.51;48.33
250;BME280;109;19.806;-70.704;2024-02-04T11:26:25;100862.75;;;21.48;50.68
250;BME280;109;19.806;-70.704;2024-02-04T11:28:52;100866.78;;;21.41;50.50
250;BME280;109;19.806;-70.704;2024-02-04T11:31:19;100864.09;;;22.14;49.39
250;BME280;109;19.806;-70.704;2024-02-04T11:33:46;100859.41;;;21.45;50.38
250;BME280;109;19.806;-70.704;2024-02-04T11:36:14;100859.22;;;21.78;49.58
250;BME280;109;19.806;-70.704;2024-02-04T11:38:41;100864.25;;;21.68;49.70
250;BME280;109;19.806;-70.704;2024-02-04T11:41:08;100866.13;;;21.96;49.12
250;BME280;109;19.806;-70.704;2024-02-04T11:43:36;100865.16;;;21.83;49.27
250;BME280;109;19.806;-70.704;2024-02-04T11:46:04;100869.47;;;21.85;49.45
250;BME280;109;19.806;-70.704;2024-02-04T11:48:32;100871.69;;;22.07;49.22
250;BME280;109;19.806;-70.704;2024-02-04T11:50:59;100863.81;;;21.90;49.54
250;BME280;109;19.806;-70.704;2024-02-04T11:53:29;100874.53;;;21.76;49.62
250;BME280;109;19.806;-70.704;2024-02-04T11:56:00;100866.50;;;21.90;49.61
250;BME280;109;19.806;-70.704;2024-02-04T11:58:29;100869.56;;;22.12;49.15
250;BME280;109;19.806;-70.704;2024-02-04T12:00:57;100876.50;;;22.02;48.88
250;BME280;109;19.806;-70.704;2024-02-04T12:03:31;100877.59;;;21.70;49.47
250;BME280;109;19.806;-70.704;2024-02-04T12:05:58;100886.47;;;21.72;49.65
250;BME280;109;19.806;-70.704;2024-02-04T12:08:30;100884.16;;;21.94;49.30
250;BME280;109;19.806;-70.704;2024-02-04T12:10:57;100886.47;;;22.14;49.21
250;BME280;109;19.806;-70.704;2024-02-04T12:13:25;100885.25;;;22.34;48.73
250;BME280;109;19.806;-70.704;2024-02-04T12:15:51;100883.88;;;22.55;48.71
250;BME280;109;19.806;-70.704;2024-02-04T12:18:18;100884.34;;;22.62;48.21
250;BME280;109;19.806;-70.704;2024-02-04T12:20:47;100881.94;;;22.57;48.18
250;BME280;109;19.806;-70.704;2024-02-04T12:23:17;100881.53;;;22.63;48.38
250;BME280;109;19.806;-70.704;2024-02-04T12:25:49;100880.94;;;23.14;47.84
250;BME280;109;19.806;-70.704;2024-02-04T12:28:16;100891.16;;;22.82;47.95
250;BME280;109;19.806;-70.704;2024-02-04T12:30:53;100887.03;;;22.62;48.70
250;BME280;109;19.806;-70.704;2024-02-04T12:33:24;100890.84;;;22.72;48.03
250;BME280;109;19.806;-70.704;2024-02-04T12:35:52;100886.06;;;22.63;48.08
250;BME280;109;19.806;-70.704;2024-02-04T12:38:21;100882.88;;;23.38;47.15
250;BME280;109;19.806;-70.704;2024-02-04T12:40:48;100890.56;;;22.77;48.02
250;BME280;109;19.806;-70.704;2024-02-04T12:43:15;100897.78;;;22.76;48.02
250;BME280;109;19.806;-70.704;2024-02-04T12:45:41;100900.84;;;22.84;47.92
250;BME280;109;19.806;-70.704;2024-02-04T12:48:08;100896.06;;;23.02;47.81
250;BME280;109;19.806;-70.704;2024-02-04T12:50:37;100906.13;;;23.13;47.84
250;BME280;109;19.806;-70.704;2024-02-04T12:53:09;100911.84;;;23.21;47.68
250;BME280;109;19.806;-70.704;2024-02-04T12:55:39;100905.13;;;23.28;47.85
250;BME280;109;19.806;-70.704;2024-02-04T12:58:09;100901.16;;;23.33;47.29
250;BME280;109;19.806;-70.704;2024-02-04T13:00:38;100905.47;;;23.36;47.34
250;BME280;109;19.806;-70.704;2024-02-04T13:03:06;100909.56;;;23.41;47.38
250;BME280;109;19.806;-70.704;2024-02-04T13:05:34;100907.75;;;23.42;47.31
250;BME280;109;19.806;-70.704;2024-02-04T13:08:02;100911.34;;;23.68;47.75
250;BME280;109;19.806;-70.704;2024-02-04T13:10:31;100922.88;;;23.57;46.92
250;BME280;109;19.806;-70.704;2024-02-04T13:13:07;100918.91;;;23.63;46.80
250;BME280;109;19.806;-70.704;2024-02-04T13:15:40;100929.19;;;23.96;46.51
250;BME280;109;19.806;-70.704;2024-02-04T13:18:09;100925.63;;;24.21;46.84
250;BME280;109;19.806;-70.704;2024-02-04T13:20:37;100919.06;;;24.37;45.32
250;BME280;109;19.806;-70.704;2024-02-04T13:23:04;100928.41;;;24.70;45.21
250;BME280;109;19.806;-70.704;2024-02-04T13:25:31;100934.34;;;24.62;45.11
250;BME280;109;19.806;-70.704;2024-02-04T13:27:58;100927.59;;;24.93;44.70
250;BME280;109;19.806;-70.704;2024-02-04T13:30:24;100922.63;;;24.87;44.30
250;BME280;109;19.806;-70.704;2024-02-04T13:32:51;100935.16;;;24.88;44.82
250;BME280;109;19.806;-70.704;2024-02-04T13:35:17;100940.13;;;25.18;44.55
250;BME280;109;19.806;-70.704;2024-02-04T13:37:46;100938.47;;;25.63;43.95
250;BME280;109;19.806;-70.704;2024-02-04T13:40:14;100943.81;;;25.41;44.24
250;BME280;109;19.806;-70.704;2024-02-04T13:42:41;100945.53;;;25.42;44.15